Arden Hills, Minnesota
Current Conditions -  °F | °C
As of 4:54 AM on Wednesday 22 Oct 2014 (Local Time) from KANE Reporting Station
Clear Clear  
Wind Chill: 39°   Ceiling: Unl
Heat Index: 45°   Visibility: 10mi
Dew Point: 39°   Wind: 12mph
Humidity: 81%   Direction: 140°SE
Pressure: 30.19"   Gusts: 16mph
Location:  45.0848°N, 93.136°W
Report Text: KANE 220954Z AUTO 14010G14KT 10SM CLR 07/04 A3019 RMK AO2
Loading
Personal Weather Stations






























Interactive Weather Map New forecast layout! Learn more

10-Day Weather Forecast

Advertisements
Track Severe Weather on mobile